sensor_id;sensor_type;location;lat;lon;timestamp;pressure;altitude;pressure_sealevel;temperature;humidity
13695;BME280;6919;52.344;14.518;2023-02-22T00:00:57;100829.44;;;5.45;100.00
13695;BME280;6919;52.344;14.518;2023-02-22T00:03:31;100834.03;;;5.43;100.00
13695;BME280;6919;52.344;14.518;2023-02-22T00:06:03;100838.53;;;5.54;100.00
13695;BME280;6919;52.344;14.518;2023-02-22T00:08:34;100841.53;;;5.49;100.00
13695;BME280;6919;52.344;14.518;2023-02-22T00:11:05;100846.13;;;5.47;100.00
13695;BME280;6919;52.344;14.518;2023-02-22T00:13:35;100840.06;;;5.45;100.00
13695;BME280;6919;52.344;14.518;2023-02-22T00:16:05;100835.59;;;5.46;100.00
13695;BME280;6919;52.344;14.518;2023-02-22T00:18:35;100839.28;;;5.56;100.00
13695;BME280;6919;52.344;14.518;2023-02-22T00:21:05;100838.66;;;5.63;100.00
13695;BME280;6919;52.344;14.518;2023-02-22T00:23:40;100842.53;;;5.59;100.00
13695;BME280;6919;52.344;14.518;2023-02-22T00:26:13;100836.38;;;5.59;100.00
13695;BME280;6919;52.344;14.518;2023-02-22T00:28:45;100834.44;;;5.61;100.00
13695;BME280;6919;52.344;14.518;2023-02-22T00:31:14;100826.13;;;5.65;100.00
13695;BME280;6919;52.344;14.518;2023-02-22T00:33:45;100821.50;;;5.67;100.00
13695;BME280;6919;52.344;14.518;2023-02-22T00:36:14;100831.03;;;5.82;100.00
13695;BME280;6919;52.344;14.518;2023-02-22T00:38:43;100829.19;;;5.83;100.00
13695;BME280;6919;52.344;14.518;2023-02-22T00:41:11;100821.66;;;5.77;100.00
13695;BME280;6919;52.344;14.518;2023-02-22T00:43:41;100819.41;;;5.83;100.00
13695;BME280;6919;52.344;14.518;2023-02-22T00:46:09;100822.19;;;5.82;100.00
13695;BME280;6919;52.344;14.518;2023-02-22T00:48:38;100829.38;;;5.80;100.00
13695;BME280;6919;52.344;14.518;2023-02-22T00:51:08;100825.03;;;5.79;100.00
13695;BME280;6919;52.344;14.518;2023-02-22T00:53:36;100823.59;;;5.75;100.00
13695;BME280;6919;52.344;14.518;2023-02-22T00:56:06;100824.59;;;5.85;100.00
13695;BME280;6919;52.344;14.518;2023-02-22T00:58:35;100818.69;;;5.92;100.00
13695;BME280;6919;52.344;14.518;2023-02-22T01:01:03;100820.00;;;5.87;100.00
13695;BME280;6919;52.344;14.518;2023-02-22T01:03:32;100829.81;;;5.86;100.00
13695;BME280;6919;52.344;14.518;2023-02-22T01:06:01;100826.41;;;5.84;100.00
13695;BME280;6919;52.344;14.518;2023-02-22T01:08:31;100824.91;;;5.80;100.00
13695;BME280;6919;52.344;14.518;2023-02-22T01:11:00;100830.59;;;5.76;100.00
13695;BME280;6919;52.344;14.518;2023-02-22T01:13:28;100824.84;;;5.82;100.00
13695;BME280;6919;52.344;14.518;2023-02-22T01:15:57;100832.63;;;5.61;100.00
13695;BME280;6919;52.344;14.518;2023-02-22T01:18:26;100834.19;;;5.53;100.00
13695;BME280;6919;52.344;14.518;2023-02-22T01:20:55;100828.72;;;5.43;100.00
13695;BME280;6919;52.344;14.518;2023-02-22T01:23:24;100824.53;;;5.28;100.00
13695;BME280;6919;52.344;14.518;2023-02-22T01:25:54;100829.97;;;5.27;100.00
13695;BME280;6919;52.344;14.518;2023-02-22T01:28:23;100830.03;;;5.14;100.00
13695;BME280;6919;52.344;14.518;2023-02-22T01:30:52;100824.28;;;5.20;100.00
13695;BME280;6919;52.344;14.518;2023-02-22T01:33:22;100834.63;;;5.12;100.00
13695;BME280;6919;52.344;14.518;2023-02-22T01:35:51;100830.91;;;5.15;100.00
13695;BME280;6919;52.344;14.518;2023-02-22T01:38:20;100836.91;;;5.06;100.00
13695;BME280;6919;52.344;14.518;2023-02-22T01:40:50;100828.31;;;5.02;100.00
13695;BME280;6919;52.344;14.518;2023-02-22T01:43:23;100827.69;;;4.99;100.00
13695;BME280;6919;52.344;14.518;2023-02-22T01:45:58;100828.34;;;5.13;100.00
13695;BME280;6919;52.344;14.518;2023-02-22T01:48:34;100825.06;;;5.33;100.00
13695;BME280;6919;52.344;14.518;2023-02-22T01:51:08;100819.59;;;5.24;100.00
13695;BME280;6919;52.344;14.518;2023-02-22T01:53:43;100818.69;;;5.12;100.00
13695;BME280;6919;52.344;14.518;2023-02-22T01:56:14;100821.25;;;5.59;100.00
13695;BME280;6919;52.344;14.518;2023-02-22T01:58:47;100821.97;;;5.50;100.00
13695;BME280;6919;52.344;14.518;2023-02-22T02:01:18;100814.78;;;5.40;100.00
13695;BME280;6919;52.344;14.518;2023-02-22T02:03:50;100813.69;;;5.42;100.00
13695;BME280;6919;52.344;14.518;2023-02-22T02:06:20;100814.19;;;5.36;100.00
13695;BME280;6919;52.344;14.518;2023-02-22T02:08:54;100818.09;;;5.43;100.00
13695;BME280;6919;52.344;14.518;2023-02-22T02:11:26;100820.78;;;5.65;100.00
13695;BME280;6919;52.344;14.518;2023-02-22T02:13:57;100823.66;;;5.51;100.00
13695;BME280;6919;52.344;14.518;2023-02-22T02:16:31;100825.94;;;5.45;100.00
13695;BME280;6919;52.344;14.518;2023-02-22T02:19:04;100816.22;;;5.33;100.00
13695;BME280;6919;52.344;14.518;2023-02-22T02:21:49;100818.28;;;5.29;100.00
13695;BME280;6919;52.344;14.518;2023-02-22T02:24:50;100815.44;;;5.43;100.00
13695;BME280;6919;52.344;14.518;2023-02-22T02:27:33;100819.00;;;5.31;100.00
13695;BME280;6919;52.344;14.518;2023-02-22T02:30:31;100812.47;;;5.35;100.00
13695;BME280;6919;52.344;14.518;2023-02-22T02:33:12;100810.97;;;5.20;100.00
13695;BME280;6919;52.344;14.518;2023-02-22T02:35:50;100811.31;;;5.16;100.00
13695;BME280;6919;52.344;14.518;2023-02-22T02:38:31;100815.66;;;5.40;100.00
13695;BME280;6919;52.344;14.518;2023-02-22T02:41:08;100806.50;;;5.55;100.00
13695;BME280;6919;52.344;14.518;2023-02-22T02:43:43;100805.41;;;5.12;100.00
13695;BME280;6919;52.344;14.518;2023-02-22T02:46:18;100809.53;;;4.93;100.00
13695;BME280;6919;52.344;14.518;2023-02-22T02:48:52;100806.19;;;4.78;100.00
13695;BME280;6919;52.344;14.518;2023-02-22T02:51:26;100814.00;;;4.92;100.00
13695;BME280;6919;52.344;14.518;2023-02-22T02:53:57;100812.63;;;4.87;100.00
13695;BME280;6919;52.344;14.518;2023-02-22T02:56:27;100804.13;;;4.71;100.00
13695;BME280;6919;52.344;14.518;2023-02-22T02:58:57;100808.53;;;4.83;100.00
13695;BME280;6919;52.344;14.518;2023-02-22T03:01:49;100807.72;;;4.70;100.00
13695;BME280;6919;52.344;14.518;2023-02-22T03:04:32;100802.75;;;4.65;100.00
13695;BME280;6919;52.344;14.518;2023-02-22T03:07:24;100799.56;;;4.84;100.00
13695;BME280;6919;52.344;14.518;2023-02-22T03:10:09;100810.19;;;4.60;100.00
13695;BME280;6919;52.344;14.518;2023-02-22T03:12:46;100808.06;;;4.65;100.00
13695;BME280;6919;52.344;14.518;2023-02-22T03:15:26;100806.34;;;4.64;100.00
13695;BME280;6919;52.344;14.518;2023-02-22T03:18:03;100801.72;;;4.55;100.00
13695;BME280;6919;52.344;14.518;2023-02-22T03:20:41;100801.88;;;4.41;100.00
13695;BME280;6919;52.344;14.518;2023-02-22T03:23:18;100801.13;;;4.39;100.00
13695;BME280;6919;52.344;14.518;2023-02-22T03:25:54;100799.66;;;4.35;100.00
13695;BME280;6919;52.344;14.518;2023-02-22T03:28:26;100810.38;;;4.34;100.00
13695;BME280;6919;52.344;14.518;2023-02-22T03:30:59;100801.94;;;4.16;100.00
13695;BME280;6919;52.344;14.518;2023-02-22T03:33:32;100807.13;;;4.30;100.00
13695;BME280;6919;52.344;14.518;2023-02-22T03:36:11;100800.41;;;4.37;100.00
13695;BME280;6919;52.344;14.518;2023-02-22T03:38:42;100803.06;;;4.37;100.00
13695;BME280;6919;52.344;14.518;2023-02-22T03:41:13;100799.66;;;4.35;100.00
13695;BME280;6919;52.344;14.518;2023-02-22T03:43:47;100804.00;;;4.36;100.00
13695;BME280;6919;52.344;14.518;2023-02-22T03:46:17;100809.25;;;4.00;100.00
13695;BME280;6919;52.344;14.518;2023-02-22T03:48:49;100810.22;;;3.99;100.00
13695;BME280;6919;52.344;14.518;2023-02-22T03:51:22;100815.94;;;4.18;100.00
13695;BME280;6919;52.344;14.518;2023-02-22T03:53:51;100815.94;;;4.18;100.00
13695;BME280;6919;52.344;14.518;2023-02-22T03:56:22;100817.09;;;4.27;100.00
13695;BME280;6919;52.344;14.518;2023-02-22T03:58:53;100820.06;;;4.22;100.00
13695;BME280;6919;52.344;14.518;2023-02-22T04:01:22;100820.81;;;4.24;100.00
13695;BME280;6919;52.344;14.518;2023-02-22T04:03:51;100824.41;;;4.36;100.00
13695;BME280;6919;52.344;14.518;2023-02-22T04:06:21;100828.50;;;4.52;100.00
13695;BME280;6919;52.344;14.518;2023-02-22T04:08:50;100828.16;;;4.57;100.00
13695;BME280;6919;52.344;14.518;2023-02-22T04:11:19;100828.16;;;4.57;100.00
13695;BME280;6919;52.344;14.518;2023-02-22T04:13:47;100833.38;;;4.58;100.00
13695;BME280;6919;52.344;14.518;2023-02-22T04:16:16;100830.28;;;4.52;100.00
13695;BME280;6919;52.344;14.518;2023-02-22T04:18:45;100827.56;;;4.41;100.00
13695;BME280;6919;52.344;14.518;2023-02-22T04:21:14;100827.66;;;4.39;100.00
13695;BME280;6919;52.344;14.518;2023-02-22T04:23:44;100831.78;;;4.43;100.00
13695;BME280;6919;52.344;14.518;2023-02-22T04:26:13;100829.16;;;4.43;100.00
13695;BME280;6919;52.344;14.518;2023-02-22T04:28:42;100827.78;;;4.38;100.00
13695;BME280;6919;52.344;14.518;2023-02-22T04:31:11;100831.50;;;4.35;100.00
13695;BME280;6919;52.344;14.518;2023-02-22T04:33:40;100831.50;;;4.35;100.00
13695;BME280;6919;52.344;14.518;2023-02-22T04:36:09;100835.34;;;4.31;100.00
13695;BME280;6919;52.344;14.518;2023-02-22T04:38:39;100834.28;;;4.21;100.00
13695;BME280;6919;52.344;14.518;2023-02-22T04:41:09;100830.59;;;3.86;100.00
13695;BME280;6919;52.344;14.518;2023-02-22T04:43:38;100822.44;;;3.64;100.00
13695;BME280;6919;52.344;14.518;2023-02-22T04:46:07;100830.69;;;3.60;100.00
13695;BME280;6919;52.344;14.518;2023-02-22T04:48:36;100826.75;;;3.53;100.00
13695;BME280;6919;52.344;14.518;2023-02-22T04:51:05;100829.94;;;3.45;100.00
13695;BME280;6919;52.344;14.518;2023-02-22T04:53:34;100825.84;;;3.66;100.00
13695;BME280;6919;52.344;14.518;2023-02-22T04:56:03;100819.84;;;3.38;100.00
13695;BME280;6919;52.344;14.518;2023-02-22T04:58:34;100819.63;;;3.28;100.00
13695;BME280;6919;52.344;14.518;2023-02-22T05:01:02;100813.38;;;3.29;100.00
13695;BME280;6919;52.344;14.518;2023-02-22T05:03:31;100812.25;;;3.06;100.00
13695;BME280;6919;52.344;14.518;2023-02-22T05:06:00;100811.97;;;2.84;100.00
13695;BME280;6919;52.344;14.518;2023-02-22T05:08:28;100813.63;;;2.73;100.00
13695;BME280;6919;52.344;14.518;2023-02-22T05:10:57;100814.47;;;2.73;100.00
13695;BME280;6919;52.344;14.518;2023-02-22T05:13:26;100813.44;;;2.76;100.00
13695;BME280;6919;52.344;14.518;2023-02-22T05:15:56;100811.72;;;2.75;100.00
13695;BME280;6919;52.344;14.518;2023-02-22T05:18:25;100822.88;;;2.80;100.00
13695;BME280;6919;52.344;14.518;2023-02-22T05:20:54;100818.56;;;2.91;100.00
13695;BME280;6919;52.344;14.518;2023-02-22T05:23:23;100818.88;;;2.87;100.00
13695;BME280;6919;52.344;14.518;2023-02-22T05:25:51;100822.81;;;2.94;100.00
13695;BME280;6919;52.344;14.518;2023-02-22T05:28:20;100826.81;;;2.87;100.00
13695;BME280;6919;52.344;14.518;2023-02-22T05:30:49;100827.88;;;2.84;100.00
13695;BME280;6919;52.344;14.518;2023-02-22T05:33:19;100830.59;;;2.83;100.00
13695;BME280;6919;52.344;14.518;2023-02-22T05:35:48;100832.50;;;2.81;100.00
13695;BME280;6919;52.344;14.518;2023-02-22T05:38:17;100827.81;;;2.72;100.00
13695;BME280;6919;52.344;14.518;2023-02-22T05:40:45;100828.00;;;2.69;100.00
13695;BME280;6919;52.344;14.518;2023-02-22T05:43:14;100833.06;;;2.86;100.00
13695;BME280;6919;52.344;14.518;2023-02-22T05:45:43;100828.50;;;2.88;100.00
13695;BME280;6919;52.344;14.518;2023-02-22T05:48:12;100827.19;;;2.81;100.00
13695;BME280;6919;52.344;14.518;2023-02-22T05:50:42;100835.72;;;2.86;100.00
13695;BME280;6919;52.344;14.518;2023-02-22T05:53:11;100839.03;;;2.75;100.00
13695;BME280;6919;52.344;14.518;2023-02-22T05:55:40;100832.66;;;2.65;100.00
13695;BME280;6919;52.344;14.518;2023-02-22T05:58:08;100840.03;;;2.60;100.00
13695;BME280;6919;52.344;14.518;2023-02-22T06:00:37;100840.72;;;2.50;100.00
13695;BME280;6919;52.344;14.518;2023-02-22T06:03:07;100836.78;;;2.43;100.00
13695;BME280;6919;52.344;14.518;2023-02-22T06:05:36;100844.81;;;2.41;100.00
13695;BME280;6919;52.344;14.518;2023-02-22T06:08:07;100834.31;;;2.40;100.00
13695;BME280;6919;52.344;14.518;2023-02-22T06:10:36;100846.22;;;2.47;100.00
13695;BME280;6919;52.344;14.518;2023-02-22T06:13:05;100847.28;;;2.30;100.00
13695;BME280;6919;52.344;14.518;2023-02-22T06:15:34;100846.25;;;2.05;100.00
13695;BME280;6919;52.344;14.518;2023-02-22T06:18:03;100858.34;;;2.09;100.00
13695;BME280;6919;52.344;14.518;2023-02-22T06:20:31;100861.75;;;2.25;100.00
13695;BME280;6919;52.344;14.518;2023-02-22T06:23:01;100864.50;;;2.09;100.00
13695;BME280;6919;52.344;14.518;2023-02-22T06:25:31;100866.72;;;2.01;100.00
13695;BME280;6919;52.344;14.518;2023-02-22T06:28:00;100876.84;;;2.09;100.00
13695;BME280;6919;52.344;14.518;2023-02-22T06:30:30;100873.25;;;2.10;100.00
13695;BME280;6919;52.344;14.518;2023-02-22T06:32:59;100875.97;;;2.36;100.00
13695;BME280;6919;52.344;14.518;2023-02-22T06:35:27;100877.03;;;2.20;100.00
13695;BME280;6919;52.344;14.518;2023-02-22T06:37:56;100873.16;;;2.11;100.00
13695;BME280;6919;52.344;14.518;2023-02-22T06:40:25;100875.53;;;2.30;100.00
13695;BME280;6919;52.344;14.518;2023-02-22T06:42:58;100879.50;;;2.37;100.00
13695;BME280;6919;52.344;14.518;2023-02-22T06:45:27;100870.66;;;2.64;100.00
13695;BME280;6919;52.344;14.518;2023-02-22T06:47:55;100867.19;;;2.50;100.00
13695;BME280;6919;52.344;14.518;2023-02-22T06:50:26;100875.56;;;2.70;100.00
13695;BME280;6919;52.344;14.518;2023-02-22T06:52:56;100878.28;;;2.83;100.00
13695;BME280;6919;52.344;14.518;2023-02-22T06:55:27;100867.84;;;2.53;100.00
13695;BME280;6919;52.344;14.518;2023-02-22T06:57:57;100871.16;;;2.57;100.00
13695;BME280;6919;52.344;14.518;2023-02-22T07:00:28;100874.38;;;2.88;100.00
13695;BME280;6919;52.344;14.518;2023-02-22T07:02:58;100871.53;;;2.91;100.00
13695;BME280;6919;52.344;14.518;2023-02-22T07:05:27;100874.66;;;2.84;100.00
13695;BME280;6919;52.344;14.518;2023-02-22T07:08:02;100885.41;;;2.95;100.00
13695;BME280;6919;52.344;14.518;2023-02-22T07:10:32;100887.81;;;3.12;100.00
13695;BME280;6919;52.344;14.518;2023-02-22T07:13:04;100889.75;;;3.10;100.00
13695;BME280;6919;52.344;14.518;2023-02-22T07:15:34;100895.38;;;3.18;100.00
13695;BME280;6919;52.344;14.518;2023-02-22T07:18:03;100897.72;;;3.49;100.00
13695;BME280;6919;52.344;14.518;2023-02-22T07:20:32;100894.28;;;3.47;100.00
13695;BME280;6919;52.344;14.518;2023-02-22T07:23:01;100902.28;;;3.60;100.00
13695;BME280;6919;52.344;14.518;2023-02-22T07:25:29;100884.06;;;3.80;100.00
13695;BME280;6919;52.344;14.518;2023-02-22T07:27:58;100894.56;;;3.82;100.00
13695;BME280;6919;52.344;14.518;2023-02-22T07:30:30;100892.34;;;3.88;100.00
13695;BME280;6919;52.344;14.518;2023-02-22T07:33:02;100893.19;;;3.89;100.00
13695;BME280;6919;52.344;14.518;2023-02-22T07:35:32;100897.47;;;4.04;100.00
13695;BME280;6919;52.344;14.518;2023-02-22T07:38:03;100894.34;;;4.35;100.00
13695;BME280;6919;52.344;14.518;2023-02-22T07:40:34;100885.56;;;4.34;100.00
13695;BME280;6919;52.344;14.518;2023-02-22T07:43:11;100887.19;;;4.60;100.00
13695;BME280;6919;52.344;14.518;2023-02-22T07:45:42;100881.25;;;4.69;100.00
13695;BME280;6919;52.344;14.518;2023-02-22T07:48:12;100880.38;;;4.69;100.00
13695;BME280;6919;52.344;14.518;2023-02-22T07:50:44;100880.13;;;4.84;100.00
13695;BME280;6919;52.344;14.518;2023-02-22T07:53:15;100880.84;;;4.86;100.00
13695;BME280;6919;52.344;14.518;2023-02-22T07:55:45;100880.41;;;4.92;100.00
13695;BME280;6919;52.344;14.518;2023-02-22T07:58:14;100885.34;;;5.09;100.00
13695;BME280;6919;52.344;14.518;2023-02-22T08:00:44;100878.66;;;5.27;100.00
13695;BME280;6919;52.344;14.518;2023-02-22T08:03:16;100882.38;;;5.48;100.00
13695;BME280;6919;52.344;14.518;2023-02-22T08:05:46;100881.50;;;5.71;100.00
13695;BME280;6919;52.344;14.518;2023-02-22T08:08:16;100885.56;;;5.88;100.00
13695;BME280;6919;52.344;14.518;2023-02-22T08:10:46;100880.63;;;6.05;100.00
13695;BME280;6919;52.344;14.518;2023-02-22T08:13:16;100886.84;;;6.28;100.00
13695;BME280;6919;52.344;14.518;2023-02-22T08:15:46;100886.25;;;6.58;100.00
13695;BME280;6919;52.344;14.518;2023-02-22T08:18:16;100877.66;;;6.65;100.00
13695;BME280;6919;52.344;14.518;2023-02-22T08:20:47;100872.53;;;6.84;100.00
13695;BME280;6919;52.344;14.518;2023-02-22T08:23:16;100881.38;;;6.74;100.00
13695;BME280;6919;52.344;14.518;2023-02-22T08:25:45;100883.25;;;7.05;100.00
13695;BME280;6919;52.344;14.518;2023-02-22T08:28:17;100880.00;;;7.01;100.00
13695;BME280;6919;52.344;14.518;2023-02-22T08:30:49;100876.41;;;7.23;100.00
13695;BME280;6919;52.344;14.518;2023-02-22T08:33:18;100884.97;;;7.37;100.00
13695;BME280;6919;52.344;14.518;2023-02-22T08:35:48;100881.19;;;7.40;100.00
13695;BME280;6919;52.344;14.518;2023-02-22T08:38:20;100870.72;;;7.59;100.00
13695;BME280;6919;52.344;14.518;2023-02-22T08:40:50;100868.41;;;7.75;100.00
13695;BME280;6919;52.344;14.518;2023-02-22T08:43:20;100864.56;;;7.68;100.00
13695;BME280;6919;52.344;14.518;2023-02-22T08:45:51;100863.88;;;7.66;100.00
13695;BME280;6919;52.344;14.518;2023-02-22T08:48:23;100865.50;;;7.78;100.00
13695;BME280;6919;52.344;14.518;2023-02-22T08:50:52;100870.34;;;7.73;100.00
13695;BME280;6919;52.344;14.518;2023-02-22T08:53:21;100861.91;;;7.88;100.00
13695;BME280;6919;52.344;14.518;2023-02-22T08:55:49;100866.97;;;7.91;100.00
13695;BME280;6919;52.344;14.518;2023-02-22T08:58:18;100866.31;;;8.19;100.00
13695;BME280;6919;52.344;14.518;2023-02-22T09:00:47;100866.69;;;8.26;100.00
13695;BME280;6919;52.344;14.518;2023-02-22T09:03:17;100871.53;;;8.21;100.00
13695;BME280;6919;52.344;14.518;2023-02-22T09:05:45;100865.09;;;8.23;100.00
13695;BME280;6919;52.344;14.518;2023-02-22T09:08:15;100877.53;;;8.34;100.00
13695;BME280;6919;52.344;14.518;2023-02-22T09:10:44;100871.47;;;8.32;100.00
13695;BME280;6919;52.344;14.518;2023-02-22T09:13:13;100871.38;;;8.43;100.00
13695;BME280;6919;52.344;14.518;2023-02-22T09:15:42;100871.34;;;8.63;100.00
13695;BME280;6919;52.344;14.518;2023-02-22T09:18:12;100875.34;;;8.88;100.00
13695;BME280;6919;52.344;14.518;2023-02-22T09:20:45;100874.69;;;9.24;100.00
13695;BME280;6919;52.344;14.518;2023-02-22T09:23:14;100874.44;;;9.46;100.00
13695;BME280;6919;52.344;14.518;2023-02-22T09:25:42;100871.78;;;9.65;100.00
13695;BME280;6919;52.344;14.518;2023-02-22T09:28:11;100874.28;;;9.86;100.00
13695;BME280;6919;52.344;14.518;2023-02-22T09:30:40;100885.00;;;9.86;100.00
13695;BME280;6919;52.344;14.518;2023-02-22T09:33:11;100885.72;;;9.88;100.00
13695;BME280;6919;52.344;14.518;2023-02-22T09:35:41;100876.25;;;10.12;100.00
13695;BME280;6919;52.344;14.518;2023-02-22T09:38:16;100873.44;;;9.66;100.00
13695;BME280;6919;52.344;14.518;2023-02-22T09:40:48;100882.75;;;9.72;100.00
13695;BME280;6919;52.344;14.518;2023-02-22T09:43:34;100877.38;;;10.00;100.00
13695;BME280;6919;52.344;14.518;2023-02-22T09:46:25;100877.91;;;10.04;100.00
13695;BME280;6919;52.344;14.518;2023-02-22T09:49:03;100871.88;;;10.11;100.00
13695;BME280;6919;52.344;14.518;2023-02-22T09:51:37;100876.25;;;10.12;100.00
13695;BME280;6919;52.344;14.518;2023-02-22T09:54:16;100875.25;;;10.23;100.00
13695;BME280;6919;52.344;14.518;2023-02-22T09:56:48;100879.78;;;10.13;100.00
13695;BME280;6919;52.344;14.518;2023-02-22T09:59:23;100876.34;;;10.30;100.00
13695;BME280;6919;52.344;14.518;2023-02-22T10:01:59;100868.13;;;10.68;100.00
13695;BME280;6919;52.344;14.518;2023-02-22T10:04:40;100864.91;;;10.64;100.00
13695;BME280;6919;52.344;14.518;2023-02-22T10:07:16;100866.16;;;10.33;100.00
13695;BME280;6919;52.344;14.518;2023-02-22T10:09:48;100867.97;;;10.42;100.00
13695;BME280;6919;52.344;14.518;2023-02-22T10:12:24;100874.31;;;10.51;100.00
13695;BME280;6919;52.344;14.518;2023-02-22T10:18:42;100870.13;;;10.66;100.00
13695;BME280;6919;52.344;14.518;2023-02-22T10:21:31;100871.13;;;10.65;100.00
13695;BME280;6919;52.344;14.518;2023-02-22T10:24:08;100869.56;;;10.62;100.00
13695;BME280;6919;52.344;14.518;2023-02-22T10:26:42;100872.06;;;10.46;100.00
13695;BME280;6919;52.344;14.518;2023-02-22T10:29:16;100868.69;;;10.98;100.00
13695;BME280;6919;52.344;14.518;2023-02-22T10:31:52;100876.03;;;10.96;100.00
13695;BME280;6919;52.344;14.518;2023-02-22T10:34:26;100867.03;;;10.61;100.00
13695;BME280;6919;52.344;14.518;2023-02-22T10:37:09;100868.94;;;10.41;100.00
13695;BME280;6919;52.344;14.518;2023-02-22T10:39:43;100861.66;;;10.61;100.00
13695;BME280;6919;52.344;14.518;2023-02-22T10:42:14;100865.34;;;10.60;100.00
13695;BME280;6919;52.344;14.518;2023-02-22T10:44:43;100863.56;;;10.78;100.00
13695;BME280;6919;52.344;14.518;2023-02-22T10:47:14;100864.25;;;10.53;100.00
13695;BME280;6919;52.344;14.518;2023-02-22T10:49:47;100853.53;;;10.53;100.00
13695;BME280;6919;52.344;14.518;2023-02-22T10:52:23;100859.94;;;10.69;100.00
13695;BME280;6919;52.344;14.518;2023-02-22T10:54:55;100858.81;;;10.72;100.00
13695;BME280;6919;52.344;14.518;2023-02-22T10:57:45;100850.41;;;10.57;100.00
13695;BME280;6919;52.344;14.518;2023-02-22T11:00:17;100850.34;;;10.67;100.00
13695;BME280;6919;52.344;14.518;2023-02-22T11:02:54;100848.13;;;10.62;100.00
13695;BME280;6919;52.344;14.518;2023-02-22T11:05:30;100849.91;;;10.98;100.00
13695;BME280;6919;52.344;14.518;2023-02-22T11:08:24;100845.22;;;10.83;100.00
13695;BME280;6919;52.344;14.518;2023-02-22T11:10:56;100847.63;;;11.03;100.00
13695;BME280;6919;52.344;14.518;2023-02-22T11:13:28;100846.25;;;11.52;100.00
13695;BME280;6919;52.344;14.518;2023-02-22T11:15:59;100841.41;;;11.91;100.00
13695;BME280;6919;52.344;14.518;2023-02-22T11:18:32;100840.91;;;11.95;100.00
13695;BME280;6919;52.344;14.518;2023-02-22T11:21:04;100844.38;;;11.62;100.00
13695;BME280;6919;52.344;14.518;2023-02-22T11:23:34;100850.59;;;11.62;100.00
13695;BME280;6919;52.344;14.518;2023-02-22T11:26:07;100836.81;;;11.83;100.00
13695;BME280;6919;52.344;14.518;2023-02-22T11:28:45;100828.38;;;12.04;100.00
13695;BME280;6919;52.344;14.518;2023-02-22T11:31:19;100838.66;;;11.82;100.00
13695;BME280;6919;52.344;14.518;2023-02-22T11:33:54;100833.06;;;11.58;100.00
13695;BME280;6919;52.344;14.518;2023-02-22T11:36:31;100830.31;;;11.68;100.00
13695;BME280;6919;52.344;14.518;2023-02-22T11:39:04;100822.69;;;12.07;100.00
13695;BME280;6919;52.344;14.518;2023-02-22T11:41:37;100820.91;;;12.15;100.00
13695;BME280;6919;52.344;14.518;2023-02-22T11:44:21;100820.34;;;12.37;96.59
13695;BME280;6919;52.344;14.518;2023-02-22T11:46:52;100819.97;;;12.24;94.85
13695;BME280;6919;52.344;14.518;2023-02-22T11:49:23;100819.63;;;11.58;100.00
13695;BME280;6919;52.344;14.518;2023-02-22T11:52:11;100814.94;;;12.04;98.00
13695;BME280;6919;52.344;14.518;2023-02-22T11:55:11;100814.34;;;11.49;100.00
13695;BME280;6919;52.344;14.518;2023-02-22T11:58:20;100812.59;;;11.40;100.00
13695;BME280;6919;52.344;14.518;2023-02-22T12:01:00;100806.75;;;11.44;100.00
13695;BME280;6919;52.344;14.518;2023-02-22T12:03:53;100807.84;;;11.95;100.00
13695;BME280;6919;52.344;14.518;2023-02-22T12:06:34;100807.53;;;11.72;100.00
13695;BME280;6919;52.344;14.518;2023-02-22T12:09:11;100806.84;;;11.17;100.00
13695;BME280;6919;52.344;14.518;2023-02-22T12:11:50;100805.19;;;11.07;100.00
13695;BME280;6919;52.344;14.518;2023-02-22T12:14:27;100809.06;;;11.57;100.00
13695;BME280;6919;52.344;14.518;2023-02-22T12:17:22;100801.25;;;11.28;100.00
13695;BME280;6919;52.344;14.518;2023-02-22T12:19:56;100799.94;;;11.32;100.00
13695;BME280;6919;52.344;14.518;2023-02-22T12:22:32;100798.78;;;11.52;97.71
13695;BME280;6919;52.344;14.518;2023-02-22T12:25:04;100797.09;;;11.69;93.59
13695;BME280;6919;52.344;14.518;2023-02-22T12:27:41;100796.13;;;11.60;93.13
13695;BME280;6919;52.344;14.518;2023-02-22T12:32:47;100793.41;;;11.52;95.33
13695;BME280;6919;52.344;14.518;2023-02-22T12:35:21;100791.41;;;11.19;95.25
13695;BME280;6919;52.344;14.518;2023-02-22T12:37:57;100783.34;;;11.72;94.08
13695;BME280;6919;52.344;14.518;2023-02-22T12:40:33;100784.25;;;11.80;95.78
13695;BME280;6919;52.344;14.518;2023-02-22T12:43:09;100778.91;;;11.63;96.83
13695;BME280;6919;52.344;14.518;2023-02-22T12:45:45;100784.84;;;11.92;91.09
13695;BME280;6919;52.344;14.518;2023-02-22T12:48:28;100785.66;;;11.93;91.93
13695;BME280;6919;52.344;14.518;2023-02-22T12:51:01;100783.50;;;11.70;92.23
13695;BME280;6919;52.344;14.518;2023-02-22T12:53:33;100783.03;;;11.75;96.18
13695;BME280;6919;52.344;14.518;2023-02-22T12:56:15;100789.22;;;11.75;96.20
13695;BME280;6919;52.344;14.518;2023-02-22T12:58:50;100786.41;;;11.42;99.50
13695;BME280;6919;52.344;14.518;2023-02-22T13:01:23;100784.41;;;11.61;100.00
13695;BME280;6919;52.344;14.518;2023-02-22T13:03:54;100780.44;;;11.65;96.82
13695;BME280;6919;52.344;14.518;2023-02-22T13:06:39;100781.00;;;11.77;94.66
13695;BME280;6919;52.344;14.518;2023-02-22T13:09:31;100782.16;;;11.92;91.76
13695;BME280;6919;52.344;14.518;2023-02-22T13:12:05;100782.97;;;11.93;91.75
13695;BME280;6919;52.344;14.518;2023-02-22T13:14:45;100772.28;;;11.75;92.70
13695;BME280;6919;52.344;14.518;2023-02-22T13:17:23;100771.63;;;11.81;99.35
13695;BME280;6919;52.344;14.518;2023-02-22T13:19:59;100765.84;;;11.68;97.50
13695;BME280;6919;52.344;14.518;2023-02-22T13:22:34;100767.59;;;11.59;99.30